createdAt,value
2022-08-30T00:00:04.695Z,3.08
2022-08-30T00:02:32.330Z,2.50
2022-08-30T00:05:01.687Z,2.70
2022-08-30T00:07:29.859Z,2.30
2022-08-30T00:09:57.420Z,2.60
2022-08-30T00:12:25.386Z,2.67
2022-08-30T00:14:53.141Z,2.67
2022-08-30T00:17:20.827Z,2.40
2022-08-30T00:19:48.397Z,2.40
2022-08-30T00:22:15.958Z,2.42
2022-08-30T00:24:44.408Z,2.80
2022-08-30T00:27:12.397Z,2.40
2022-08-30T00:29:39.972Z,2.50
2022-08-30T00:32:07.845Z,2.22
2022-08-30T00:34:35.539Z,2.67
2022-08-30T00:37:03.245Z,2.35
2022-08-30T00:39:30.798Z,2.70
2022-08-30T00:41:58.343Z,2.78
2022-08-30T00:44:25.908Z,2.50
2022-08-30T00:46:53.437Z,2.67
2022-08-30T00:49:20.952Z,2.55
2022-08-30T00:51:52.307Z,2.53
2022-08-30T00:54:19.993Z,2.47
2022-08-30T00:56:49.106Z,2.50
2022-08-30T00:59:16.753Z,2.20
2022-08-30T01:01:44.493Z,2.42
2022-08-30T01:04:13.763Z,2.30
2022-08-30T01:06:42.034Z,2.60
2022-08-30T01:09:10.103Z,2.72
2022-08-30T01:11:38.542Z,2.30
2022-08-30T01:14:07.662Z,2.33
2022-08-30T01:16:35.809Z,2.55
2022-08-30T01:19:03.581Z,2.58
2022-08-30T01:21:50.750Z,2.60
2022-08-30T01:24:19.147Z,2.80
2022-08-30T01:26:46.803Z,2.22
2022-08-30T01:29:18.664Z,2.42
2022-08-30T01:31:46.509Z,2.42
2022-08-30T01:34:14.185Z,2.40
2022-08-30T01:36:44.921Z,2.35
2022-08-30T01:39:14.318Z,2.40
2022-08-30T01:41:41.967Z,2.47
2022-08-30T01:44:10.506Z,2.50
2022-08-30T01:46:40.420Z,2.60
2022-08-30T01:49:13.262Z,2.58
2022-08-30T01:51:41.244Z,2.72
2022-08-30T01:54:08.849Z,2.50
2022-08-30T01:56:36.438Z,2.50
2022-08-30T01:59:04.178Z,2.90
2022-08-30T02:01:33.651Z,2.30
2022-08-30T02:04:01.345Z,2.50
2022-08-30T02:06:28.984Z,2.40
2022-08-30T02:08:56.552Z,2.35
2022-08-30T02:11:24.130Z,2.60
2022-08-30T02:13:51.881Z,2.30
2022-08-30T02:16:23.009Z,2.60
2022-08-30T02:18:51.531Z,2.40
2022-08-30T02:21:19.122Z,2.30
2022-08-30T02:23:46.841Z,2.60
2022-08-30T02:26:14.695Z,2.60
2022-08-30T02:28:42.766Z,2.28
2022-08-30T02:31:19.354Z,2.30
2022-08-30T02:33:50.389Z,2.70
2022-08-30T02:36:18.502Z,2.20
2022-08-30T02:38:46.404Z,2.35
2022-08-30T02:41:14.450Z,2.67
2022-08-30T02:43:41.994Z,2.40
2022-08-30T02:46:09.764Z,2.72
2022-08-30T02:48:37.626Z,2.45
2022-08-30T02:51:07.226Z,2.53
2022-08-30T02:53:38.882Z,2.63
2022-08-30T02:56:06.454Z,2.55
2022-08-30T02:58:33.969Z,2.40
2022-08-30T03:01:01.940Z,2.60
2022-08-30T03:03:29.532Z,2.47
2022-08-30T03:05:57.114Z,2.70
2022-08-30T03:08:24.878Z,2.40
2022-08-30T03:10:52.669Z,2.53
2022-08-30T03:13:20.266Z,2.17
2022-08-30T03:15:49.223Z,2.60
2022-08-30T03:18:19.854Z,2.40
2022-08-30T03:20:54.095Z,2.50
2022-08-30T03:23:23.530Z,2.40
2022-08-30T03:25:51.174Z,2.58
2022-08-30T03:28:18.706Z,2.42
2022-08-30T03:30:47.459Z,2.60
2022-08-30T03:33:15.241Z,2.70
2022-08-30T03:35:42.874Z,2.70
2022-08-30T03:38:10.528Z,2.60
2022-08-30T03:40:38.123Z,2.70
2022-08-30T03:43:05.727Z,2.38
2022-08-30T03:45:34.940Z,2.28
2022-08-30T03:48:02.669Z,2.38
2022-08-30T03:50:30.821Z,2.75
2022-08-30T03:53:01.544Z,2.20
2022-08-30T03:55:30.057Z,2.50
2022-08-30T03:57:57.824Z,2.45
2022-08-30T04:00:25.821Z,2.50
2022-08-30T04:02:53.355Z,2.28
2022-08-30T04:05:21.363Z,2.47
2022-08-30T04:07:49.109Z,2.45
2022-08-30T04:10:16.744Z,2.20
2022-08-30T04:12:49.021Z,2.47
2022-08-30T04:15:17.898Z,2.40
2022-08-30T04:17:45.538Z,2.25
2022-08-30T04:20:13.090Z,2.50
2022-08-30T04:22:40.639Z,2.40
2022-08-30T04:25:08.524Z,2.50
2022-08-30T04:27:43.292Z,2.50
2022-08-30T04:30:12.269Z,2.08
2022-08-30T04:32:39.821Z,2.75
2022-08-30T04:35:07.672Z,2.67
2022-08-30T04:37:35.265Z,2.40
2022-08-30T04:40:03.562Z,2.30
2022-08-30T04:42:32.862Z,2.90
2022-08-30T04:45:02.566Z,2.58
2022-08-30T04:47:30.194Z,2.60
2022-08-30T04:49:57.666Z,2.55
2022-08-30T04:52:28.394Z,2.40
2022-08-30T04:54:56.573Z,2.70
2022-08-30T04:57:24.840Z,2.60
2022-08-30T04:59:52.606Z,2.60
2022-08-30T05:02:20.218Z,2.58
2022-08-30T05:05:06.434Z,2.75
2022-08-30T05:07:35.275Z,2.50
2022-08-30T05:10:03.807Z,2.35
2022-08-30T05:12:32.629Z,2.13
2022-08-30T05:15:00.155Z,2.60
2022-08-30T05:17:27.738Z,2.40
2022-08-30T05:19:55.307Z,2.30
2022-08-30T05:22:22.877Z,2.58
2022-08-30T05:24:50.458Z,2.63
2022-08-30T05:27:18.045Z,2.47
2022-08-30T05:29:47.919Z,2.30
2022-08-30T05:32:15.470Z,2.60
2022-08-30T05:34:42.987Z,2.70
2022-08-30T05:37:10.522Z,2.40
2022-08-30T05:39:51.210Z,2.35
2022-08-30T05:42:19.796Z,2.33
2022-08-30T05:44:47.890Z,2.88
2022-08-30T05:47:15.424Z,2.17
2022-08-30T05:49:42.985Z,2.20
2022-08-30T05:52:12.830Z,2.88
2022-08-30T05:54:40.398Z,2.60
2022-08-30T05:57:08.453Z,2.38
2022-08-30T05:59:36.083Z,2.65
2022-08-30T06:02:03.937Z,2.38
2022-08-30T06:04:32.208Z,2.72
2022-08-30T06:06:59.720Z,2.40
2022-08-30T06:09:27.539Z,3.10
2022-08-30T06:11:55.095Z,2.67
2022-08-30T06:14:22.719Z,2.60
2022-08-30T06:16:50.980Z,2.33
2022-08-30T06:19:19.317Z,2.72
2022-08-30T06:21:51.132Z,2.53
2022-08-30T06:24:18.851Z,2.63
2022-08-30T06:26:47.667Z,2.50
2022-08-30T06:29:17.746Z,2.50
2022-08-30T06:31:45.944Z,2.50
2022-08-30T06:34:13.646Z,2.53
2022-08-30T06:36:41.342Z,2.70
2022-08-30T06:39:09.469Z,2.80
2022-08-30T06:41:38.123Z,2.72
2022-08-30T06:44:12.047Z,2.38
2022-08-30T06:46:40.072Z,2.60
2022-08-30T06:49:08.136Z,2.60
2022-08-30T06:51:37.308Z,2.80
2022-08-30T06:54:10.717Z,2.72
2022-08-30T06:56:48.670Z,2.78
2022-08-30T06:59:26.039Z,2.70
2022-08-30T07:01:54.782Z,2.45
2022-08-30T07:04:22.465Z,2.65
2022-08-30T07:06:49.994Z,2.55
2022-08-30T07:09:17.704Z,3.10
2022-08-30T07:11:45.319Z,2.92
2022-08-30T07:14:12.877Z,2.75
2022-08-30T07:16:40.469Z,3.40
2022-08-30T07:19:08.170Z,2.65
2022-08-30T07:21:49.346Z,2.83
2022-08-30T07:24:17.188Z,2.85
2022-08-30T07:26:50.038Z,3.20
2022-08-30T07:29:18.186Z,2.58
2022-08-30T07:31:46.012Z,3.10
2022-08-30T07:34:13.811Z,3.03
2022-08-30T07:36:41.493Z,2.72
2022-08-30T07:39:09.991Z,2.72
2022-08-30T07:41:39.017Z,2.65
2022-08-30T07:44:09.854Z,3.10
2022-08-30T07:46:40.575Z,3.05
2022-08-30T07:49:11.206Z,3.20
2022-08-30T07:51:39.686Z,2.90
2022-08-30T07:54:07.349Z,3.15
2022-08-30T07:56:35.372Z,3.42
2022-08-30T07:59:02.915Z,3.42
2022-08-30T08:01:30.570Z,3.35
2022-08-30T08:03:58.119Z,3.10
2022-08-30T08:06:25.664Z,3.88
2022-08-30T08:08:53.816Z,3.47
2022-08-30T08:11:23.320Z,3.50
2022-08-30T08:13:53.632Z,3.85
2022-08-30T08:16:29.412Z,3.70
2022-08-30T08:18:57.393Z,3.40
2022-08-30T08:21:26.198Z,3.45
2022-08-30T08:23:54.255Z,3.72
2022-08-30T08:26:22.409Z,3.90
2022-08-30T08:28:50.371Z,4.28
2022-08-30T08:31:25.415Z,3.67
2022-08-30T08:36:34.125Z,4.50
2022-08-30T08:39:02.048Z,3.83
2022-08-30T08:41:40.128Z,3.90
2022-08-30T08:44:15.154Z,4.32
2022-08-30T08:46:50.310Z,3.95
2022-08-30T08:49:17.930Z,3.75
2022-08-30T08:52:04.988Z,4.38
2022-08-30T08:54:40.424Z,3.95
2022-08-30T08:57:09.451Z,3.85
2022-08-30T08:59:38.310Z,3.92
2022-08-30T09:02:24.162Z,4.10
2022-08-30T09:04:52.657Z,4.15
2022-08-30T09:07:24.703Z,3.70
2022-08-30T09:09:52.398Z,4.28
2022-08-30T09:12:22.403Z,4.22
2022-08-30T09:14:55.579Z,4.07
2022-08-30T09:17:23.634Z,3.97
2022-08-30T09:19:54.327Z,4.18
2022-08-30T09:22:38.172Z,4.15
2022-08-30T09:25:08.132Z,4.10
2022-08-30T09:27:56.125Z,4.00
2022-08-30T09:30:28.116Z,4.15
2022-08-30T09:33:01.630Z,3.90
2022-08-30T09:35:38.429Z,4.05
2022-08-30T09:38:10.521Z,3.85
2022-08-30T09:40:40.748Z,3.90
2022-08-30T09:43:11.962Z,4.28
2022-08-30T09:45:42.260Z,4.05
2022-08-30T09:48:22.449Z,3.63
2022-08-30T09:51:13.436Z,3.80
2022-08-30T09:57:04.021Z,3.60
2022-08-30T09:59:39.739Z,3.58
2022-08-30T10:02:21.609Z,3.63
2022-08-30T10:05:01.463Z,3.35
2022-08-30T10:07:34.655Z,3.45
2022-08-30T10:10:08.508Z,3.78
2022-08-30T10:12:54.667Z,3.40
2022-08-30T10:15:24.654Z,3.70
2022-08-30T10:18:04.877Z,3.38
2022-08-30T10:20:35.187Z,3.05
2022-08-30T10:23:09.518Z,3.00
2022-08-30T10:25:40.956Z,3.00
2022-08-30T10:28:08.563Z,2.60
2022-08-30T10:30:38.802Z,2.80
2022-08-30T10:33:10.565Z,2.90
2022-08-30T10:35:43.935Z,2.85
2022-08-30T10:38:32.043Z,2.70
2022-08-30T10:41:14.752Z,2.72
2022-08-30T10:43:57.062Z,2.72
2022-08-30T10:46:25.391Z,2.80
2022-08-30T10:48:53.966Z,2.75
2022-08-30T10:51:26.126Z,2.60
2022-08-30T10:53:55.928Z,2.63
2022-08-30T10:56:24.933Z,2.90
2022-08-30T10:58:54.998Z,2.88
2022-08-30T11:01:28.294Z,2.95
2022-08-30T11:03:59.191Z,3.03
2022-08-30T11:06:42.011Z,2.85
2022-08-30T11:09:28.053Z,2.97
2022-08-30T11:11:55.551Z,2.47
2022-08-30T11:14:25.571Z,2.83
2022-08-30T11:16:55.654Z,2.95
2022-08-30T11:19:40.861Z,2.65
2022-08-30T11:22:16.109Z,2.70
2022-08-30T11:25:10.103Z,3.08
2022-08-30T11:27:56.835Z,2.60
2022-08-30T11:30:28.394Z,3.03
2022-08-30T11:33:05.436Z,2.78
2022-08-30T11:35:50.270Z,2.97
2022-08-30T11:38:19.545Z,2.80
2022-08-30T11:40:53.296Z,2.83
2022-08-30T11:43:47.168Z,2.47
2022-08-30T11:46:17.226Z,2.53
2022-08-30T11:48:54.563Z,2.65
2022-08-30T11:51:29.300Z,2.40
2022-08-30T11:54:01.529Z,2.35
2022-08-30T11:56:33.183Z,2.80
2022-08-30T11:59:19.021Z,2.80
2022-08-30T12:01:50.679Z,2.63
2022-08-30T12:04:23.001Z,2.58
2022-08-30T12:06:51.038Z,2.53
2022-08-30T12:09:24.645Z,2.72
2022-08-30T12:11:54.521Z,2.83
2022-08-30T12:14:34.328Z,3.00
2022-08-30T12:17:22.122Z,2.63
2022-08-30T12:19:50.638Z,2.63
2022-08-30T12:22:19.211Z,2.55
2022-08-30T12:24:49.787Z,2.67
2022-08-30T12:27:23.673Z,2.55
2022-08-30T12:29:53.601Z,2.50
2022-08-30T12:32:22.494Z,2.67
2022-08-30T12:34:51.906Z,2.35
2022-08-30T12:37:23.326Z,2.33
2022-08-30T12:40:01.724Z,2.55
2022-08-30T12:42:30.613Z,2.30
2022-08-30T12:45:00.754Z,2.42
2022-08-30T12:47:31.130Z,2.55
2022-08-30T12:49:59.270Z,2.78
2022-08-30T12:52:26.897Z,2.88
2022-08-30T12:54:55.260Z,2.60
2022-08-30T12:57:41.786Z,2.53
2022-08-30T13:00:11.382Z,2.72
2022-08-30T13:02:43.803Z,2.60
2022-08-30T13:05:32.449Z,2.40
2022-08-30T13:08:14.592Z,2.58
2022-08-30T13:11:09.172Z,2.45
2022-08-30T13:13:38.823Z,2.65
2022-08-30T13:16:18.639Z,2.40
2022-08-30T13:18:47.496Z,2.53
2022-08-30T13:21:32.340Z,2.63
2022-08-30T13:24:01.665Z,2.35
2022-08-30T13:26:31.146Z,2.17
2022-08-30T13:28:59.826Z,2.40
2022-08-30T13:31:28.084Z,2.40
2022-08-30T13:33:57.816Z,2.40
2022-08-30T13:36:33.127Z,2.45
2022-08-30T13:39:02.402Z,2.38
2022-08-30T13:41:33.975Z,2.40
2022-08-30T13:44:20.217Z,2.40
2022-08-30T13:47:32.209Z,2.60
2022-08-30T13:49:46.818Z,2.28
2022-08-30T13:52:21.355Z,2.25
2022-08-30T13:54:53.822Z,2.40
2022-08-30T14:00:14.566Z,2.35
2022-08-30T14:02:48.802Z,2.58
2022-08-30T14:08:44.524Z,2.40
2022-08-30T14:10:57.756Z,2.20
2022-08-30T14:13:29.123Z,2.67
2022-08-30T14:18:45.524Z,2.65
2022-08-30T14:21:13.021Z,2.03
2022-08-30T14:23:40.585Z,2.05
2022-08-30T14:26:17.230Z,2.80
2022-08-30T14:28:45.319Z,2.42
2022-08-30T14:31:13.326Z,2.67
2022-08-30T14:33:41.072Z,2.47
2022-08-30T14:36:15.528Z,2.50
2022-08-30T14:38:44.198Z,2.65
2022-08-30T14:41:12.283Z,2.50
2022-08-30T14:43:41.634Z,2.80
2022-08-30T14:46:10.194Z,2.85
2022-08-30T14:48:38.637Z,2.30
2022-08-30T14:51:16.929Z,2.20
2022-08-30T14:53:45.129Z,2.45
2022-08-30T14:56:14.432Z,2.55
2022-08-30T14:58:42.307Z,2.65
2022-08-30T15:01:11.068Z,2.35
2022-08-30T15:03:41.052Z,2.22
2022-08-30T15:06:09.944Z,2.55
2022-08-30T15:08:39.380Z,2.55
2022-08-30T15:11:14.319Z,2.92
2022-08-30T15:13:44.564Z,2.90
2022-08-30T15:16:12.773Z,2.70
2022-08-30T15:18:41.704Z,2.42
2022-08-30T15:21:09.910Z,2.78
2022-08-30T15:23:37.921Z,2.53
2022-08-30T15:26:08.115Z,2.65
2022-08-30T15:28:36.973Z,3.05
2022-08-30T15:31:08.533Z,2.63
2022-08-30T15:33:37.479Z,2.67
2022-08-30T15:36:05.497Z,3.00
2022-08-30T15:38:33.454Z,2.65
2022-08-30T15:41:03.704Z,2.67
2022-08-30T15:43:32.391Z,2.78
2022-08-30T15:46:30.231Z,2.83
2022-08-30T15:49:00.382Z,2.70
2022-08-30T15:51:28.147Z,2.25
2022-08-30T15:53:58.656Z,2.78
2022-08-30T15:56:26.280Z,2.75
2022-08-30T15:58:53.844Z,2.55
2022-08-30T16:01:30.424Z,2.85
2022-08-30T16:03:59.026Z,2.67
2022-08-30T16:06:28.302Z,2.47
2022-08-30T16:08:56.282Z,2.55
2022-08-30T16:11:25.082Z,2.70
2022-08-30T16:13:54.485Z,2.60
2022-08-30T16:16:22.815Z,2.78
2022-08-30T16:18:54.148Z,2.70
2022-08-30T16:21:29.455Z,2.45
2022-08-30T16:23:57.804Z,2.53
2022-08-30T16:26:25.951Z,2.63
2022-08-30T16:28:53.901Z,2.42
2022-08-30T16:31:22.278Z,2.55
2022-08-30T16:33:52.851Z,2.72
2022-08-30T16:36:21.516Z,2.50
2022-08-30T16:38:49.729Z,2.65
2022-08-30T16:41:22.402Z,2.53
2022-08-30T16:43:53.543Z,2.60
2022-08-30T16:46:23.497Z,2.50
2022-08-30T16:48:56.031Z,2.50
2022-08-30T16:51:24.832Z,2.50
2022-08-30T16:53:55.250Z,2.30
2022-08-30T16:56:26.074Z,2.53
2022-08-30T16:59:01.175Z,2.50
2022-08-30T17:01:31.205Z,2.38
2022-08-30T17:03:58.957Z,2.58
2022-08-30T17:06:26.692Z,2.50
2022-08-30T17:08:56.190Z,2.40
2022-08-30T17:11:24.749Z,2.60
2022-08-30T17:13:52.827Z,3.08
2022-08-30T17:16:22.454Z,2.63
2022-08-30T17:18:55.684Z,2.70
2022-08-30T17:21:23.313Z,2.40
2022-08-30T17:23:51.296Z,2.58
2022-08-30T17:26:19.754Z,2.60
2022-08-30T17:28:47.406Z,2.40
2022-08-30T17:31:15.412Z,2.70
2022-08-30T17:33:45.365Z,2.42
2022-08-30T17:36:13.521Z,2.53
2022-08-30T17:38:45.129Z,2.83
2022-08-30T17:41:13.906Z,2.83
2022-08-30T17:43:41.641Z,2.42
2022-08-30T17:46:10.759Z,2.60
2022-08-30T17:48:38.734Z,2.53
2022-08-30T17:51:06.527Z,2.67
2022-08-30T17:53:35.811Z,2.50
2022-08-30T17:56:04.698Z,2.70
2022-08-30T17:58:32.515Z,3.20
2022-08-30T18:01:11.924Z,2.63
2022-08-30T18:03:39.904Z,2.33
2022-08-30T18:06:07.663Z,2.63
2022-08-30T18:08:35.570Z,2.53
2022-08-30T18:11:04.405Z,2.65
2022-08-30T18:13:34.564Z,2.42
2022-08-30T18:16:03.072Z,2.15
2022-08-30T18:18:30.926Z,2.65
2022-08-30T18:21:00.034Z,2.58
2022-08-30T18:23:28.286Z,2.90
2022-08-30T18:26:01.246Z,2.70
2022-08-30T18:28:30.081Z,2.55
2022-08-30T18:30:58.137Z,2.65
2022-08-30T18:33:26.040Z,2.88
2022-08-30T18:35:57.666Z,2.53
2022-08-30T18:38:26.230Z,2.83
2022-08-30T18:40:59.510Z,2.65
2022-08-30T18:43:30.850Z,2.72
2022-08-30T18:46:02.569Z,2.58
2022-08-30T18:48:30.658Z,2.60
2022-08-30T18:50:58.298Z,2.58
2022-08-30T18:53:29.045Z,2.60
2022-08-30T18:55:57.678Z,2.67
2022-08-30T18:58:25.350Z,2.65
2022-08-30T19:00:56.727Z,2.80
2022-08-30T19:03:24.600Z,2.42
2022-08-30T19:05:52.131Z,3.00
2022-08-30T19:08:19.870Z,3.05
2022-08-30T19:10:47.923Z,2.75
2022-08-30T19:13:15.709Z,2.90
2022-08-30T19:15:43.359Z,3.13
2022-08-30T19:18:17.283Z,2.78
2022-08-30T19:20:58.576Z,2.90
2022-08-30T19:23:33.042Z,2.58
2022-08-30T19:26:03.654Z,2.72
2022-08-30T19:28:32.186Z,2.78
2022-08-30T19:31:00.166Z,2.60
2022-08-30T19:33:27.775Z,3.03
2022-08-30T19:35:55.632Z,2.83
2022-08-30T19:38:23.289Z,2.88
2022-08-30T19:40:58.116Z,2.88
2022-08-30T19:43:25.769Z,2.70
2022-08-30T19:45:57.370Z,2.65
2022-08-30T19:48:32.066Z,3.00
2022-08-30T19:51:00.794Z,2.83
2022-08-30T19:53:28.529Z,3.00
2022-08-30T19:55:56.049Z,2.80
2022-08-30T19:58:24.383Z,3.00
2022-08-30T20:01:00.668Z,3.28
2022-08-30T20:03:28.887Z,3.15
2022-08-30T20:05:57.220Z,2.95
2022-08-30T20:08:24.907Z,3.30
2022-08-30T20:10:52.609Z,3.00
2022-08-30T20:13:23.960Z,3.10
2022-08-30T20:15:55.902Z,3.30
2022-08-30T20:18:26.062Z,2.92
2022-08-30T20:20:54.378Z,3.00
2022-08-30T20:23:25.848Z,2.83
2022-08-30T20:25:54.812Z,3.25
2022-08-30T20:28:23.016Z,3.00
2022-08-30T20:30:50.696Z,2.90
2022-08-30T20:33:18.799Z,3.25
2022-08-30T20:35:49.393Z,3.40
2022-08-30T20:38:21.806Z,3.20
2022-08-30T20:40:51.016Z,2.80
2022-08-30T20:43:19.768Z,3.05
2022-08-30T20:45:47.804Z,2.95
2022-08-30T20:48:15.950Z,2.92
2022-08-30T20:50:44.040Z,3.08
2022-08-30T20:53:11.634Z,2.83
2022-08-30T20:55:46.644Z,3.10
2022-08-30T20:58:14.650Z,3.05
2022-08-30T21:00:45.672Z,3.22
2022-08-30T21:03:26.092Z,3.20
2022-08-30T21:05:56.035Z,3.28
2022-08-30T21:08:23.675Z,3.50
2022-08-30T21:10:51.336Z,3.03
2022-08-30T21:13:18.843Z,3.30
2022-08-30T21:15:46.474Z,3.40
2022-08-30T21:18:14.649Z,3.10
2022-08-30T21:20:42.464Z,3.22
2022-08-30T21:23:10.773Z,3.03
2022-08-30T21:25:39.300Z,2.83
2022-08-30T21:28:07.072Z,2.90
2022-08-30T21:30:35.804Z,2.92
2022-08-30T21:33:04.243Z,3.10
2022-08-30T21:35:50.558Z,3.00
2022-08-30T21:38:19.250Z,3.20
2022-08-30T21:40:47.724Z,3.15
2022-08-30T21:43:16.053Z,3.20
2022-08-30T21:45:44.222Z,3.45
2022-08-30T21:48:13.006Z,3.10
2022-08-30T21:50:41.714Z,3.22
2022-08-30T21:53:09.722Z,3.00
2022-08-30T21:55:37.443Z,3.22
2022-08-30T21:58:05.112Z,3.20
2022-08-30T22:00:33.707Z,3.22
2022-08-30T22:03:01.673Z,3.25
2022-08-30T22:05:29.284Z,3.33
2022-08-30T22:07:56.937Z,3.63
2022-08-30T22:10:24.474Z,3.00
2022-08-30T22:12:52.103Z,3.38
2022-08-30T22:15:19.625Z,3.38
2022-08-30T22:17:47.225Z,3.10
2022-08-30T22:20:18.720Z,3.05
2022-08-30T22:22:46.559Z,2.95
2022-08-30T22:25:14.261Z,3.35
2022-08-30T22:27:41.909Z,3.40
2022-08-30T22:30:09.755Z,3.30
2022-08-30T22:32:38.341Z,3.58
2022-08-30T22:35:06.490Z,3.08
2022-08-30T22:37:34.811Z,3.30
2022-08-30T22:40:02.556Z,3.17
2022-08-30T22:42:30.501Z,2.90
2022-08-30T22:44:58.091Z,3.20
2022-08-30T22:47:25.659Z,3.45
2022-08-30T22:49:53.331Z,3.10
2022-08-30T22:52:25.221Z,3.22
2022-08-30T22:54:53.281Z,3.28
2022-08-30T22:57:20.833Z,3.10
2022-08-30T22:59:48.892Z,3.10
2022-08-30T23:02:16.633Z,3.28
2022-08-30T23:04:44.244Z,3.28
2022-08-30T23:07:11.822Z,3.28
2022-08-30T23:09:39.445Z,3.15
2022-08-30T23:12:07.166Z,3.10
2022-08-30T23:14:34.864Z,2.97
2022-08-30T23:17:02.491Z,3.17
2022-08-30T23:19:30.156Z,3.30
2022-08-30T23:21:57.781Z,3.15
2022-08-30T23:24:46.267Z,2.97
2022-08-30T23:27:35.391Z,2.85
2022-08-30T23:30:21.651Z,3.10
2022-08-30T23:33:07.999Z,3.13
2022-08-30T23:35:55.336Z,2.90
2022-08-30T23:38:41.569Z,2.70
2022-08-30T23:41:33.832Z,3.00
2022-08-30T23:44:20.256Z,3.10
2022-08-30T23:47:06.334Z,3.28
2022-08-30T23:49:52.506Z,3.40
2022-08-30T23:52:38.834Z,3.10
2022-08-30T23:55:26.094Z,3.17
2022-08-30T23:58:12.626Z,3.00
